Airfield :
LOGIN :

Register | Disclaimer

   EN    FR    IT 

 










Legend :    VFR   Marginal VFR   IFR   Intensive IFR   Very Intensive IFR
Visi :
Ceiling :
>= 8 km
>= 3000ft
5 to 8 km
1000 to 3000 ft
1500m to 5 km
500 to 1000 ft
800 to 1500m
200 to 500 ft
< 800m
< 200 ft
Symbols :   Thunderstorms  Fog  Heavy snow  Heavy precipitations  Wind > 20 kt
SIGMETs :     Misc.  Thunderstorms  Icing  Turbulence  Mountain Waves  Volcanic Ashes







- Airport Elevation : 106 ft
- IATA code : NRN


EDLV - Weeze

CURRENT METAR :
  • 230850Z 20015G25KT 9999 BKN040 14/06 Q0998

EXPIRED METARs :
  • 230820Z 19016KT 160V220 9999 SCT040 14/06 Q0997
  • 230750Z 18012KT 150V210 9999 FEW042 14/06 Q0997
  • 230720Z 16010KT CAVOK 13/05 Q0997
  • 230650Z 16011KT CAVOK 13/05 Q0997
  • 230620Z 16010KT CAVOK 13/05 Q0997

TAF TAF EDLV
Valid from the 23 at 06:00 until the 24 at 06:00 UTC


230500Z 2306/2406 18013KT 9999 SCT030
BECMG 2306/2309 21015G25KT
PROB30
TEMPO 2309/2313 21020G30KT
BECMG 2313/2316 23013KT
BECMG 2316/2320 21008KT
TEMPO 2403/2406 4500 RA BKN012
No reported NOTAMs for that airfield.
1 SIGMET reported for the Langen FIR (EDGG) :
 
Severe turbulence
EDGG SIGMET 1 VALID 230645/231000 EDZF
EDGG LANGEN FIR SEV TURB FCST APRX 80NM WID LINE BTN N4912 E00644 - N5116 E01021 2000FT/5000FT STNR NC=



MET'MAP, your aeronautical weather chart ! - Copyright ORBIFLY December 2007 - Disclaimer

ORBIFLY MET'MAP TEAM :

Programming & Development : Alexandra Zaïnal
Concept & Development : Baudouin d'Aumeries
Co-Development & Prog : Marc-Olivier Méhu
Technical & hardware support : Manuel Goepfert

Contact : metmap@orbifly.com




SOURCES & CREDITS :

   NOAA